Time;durP1;ratioP1;P1;durP2;ratioP2;P2;SDS_P1;SDS_P2;PMS_P1;PMS_P2;Temp;Humidity;BMP_temperature;BMP_pressure;BME280_temperature;BME280_humidity;BME280_pressure;Samples;Min_cycle;Max_cycle;Signal;HPM_P1;HPM_P2
2024/01/31 00:01:44;;;;;;;8.73;1.25;;;5.40;99.90;;;;;;5107391;28;20039;-76
2024/01/31 00:04:10;;;;;;;7.38;1.10;;;5.40;99.90;;;;;;5108575;28;20082;-76
2024/01/31 00:06:35;;;;;;;9.93;1.17;;;5.40;99.90;;;;;;5116664;27;20498;-76
2024/01/31 00:09:01;;;;;;;8.35;1.35;;;5.40;99.90;;;;;;5127798;28;20039;-76
2024/01/31 00:11:30;;;;;;;5.40;1.02;;;5.40;99.90;;;;;;5127526;27;20047;-76
2024/01/31 00:13:58;;;;;;;5.18;1.13;;;5.50;99.90;;;;;;5129167;28;20519;-76
2024/01/31 00:16:24;;;;;;;9.95;1.13;;;5.50;99.90;;;;;;5162645;27;20608;-77
2024/01/31 00:18:50;;;;;;;5.72;1.15;;;5.50;99.90;;;;;;5132012;27;20054;-77
2024/01/31 00:21:19;;;;;;;6.78;0.95;;;5.50;99.90;;;;;;5131901;27;20078;-76
2024/01/31 00:23:45;;;;;;;6.80;1.05;;;5.50;99.90;;;;;;5114213;27;20056;-76
2024/01/31 00:26:11;;;;;;;9.02;1.20;;;5.50;99.90;;;;;;5128390;27;20508;-77
2024/01/31 00:28:37;;;;;;;5.93;1.17;;;5.50;99.90;;;;;;5145543;27;20059;-77
2024/01/31 00:31:02;;;;;;;8.07;1.10;;;5.60;99.90;;;;;;5112556;28;20048;-76
2024/01/31 00:33:28;;;;;;;8.30;1.30;;;5.60;99.90;;;;;;5110826;28;20365;-77
2024/01/31 00:35:55;;;;;;;8.77;1.48;;;5.60;99.90;;;;;;5145361;27;20074;-77
2024/01/31 00:38:21;;;;;;;9.27;1.40;;;5.60;99.90;;;;;;5111818;28;20047;-77
2024/01/31 00:40:46;;;;;;;7.45;1.23;;;5.60;99.90;;;;;;5111705;27;20032;-78
2024/01/31 00:43:12;;;;;;;6.38;1.10;;;5.60;99.90;;;;;;5112220;28;20128;-77
2024/01/31 00:45:38;;;;;;;8.80;1.33;;;5.60;99.90;;;;;;5145112;27;20058;-77
2024/01/31 00:48:04;;;;;;;5.85;1.00;;;5.60;99.90;;;;;;5111946;28;20105;-77
2024/01/31 00:50:29;;;;;;;3.90;1.15;;;5.60;99.90;;;;;;5110708;28;20050;-77
2024/01/31 00:52:55;;;;;;;5.32;1.00;;;5.60;99.90;;;;;;5144579;27;20040;-77
2024/01/31 00:55:21;;;;;;;4.82;0.73;;;5.60;99.90;;;;;;5111068;28;20148;-78
2024/01/31 00:57:46;;;;;;;9.02;1.10;;;5.60;99.90;;;;;;5111209;27;20043;-77
2024/01/31 01:00:14;;;;;;;4.47;0.95;;;5.60;99.90;;;;;;5144921;27;20481;-77
2024/01/31 01:02:40;;;;;;;7.18;1.60;;;5.60;99.90;;;;;;5111761;28;20035;-77
2024/01/31 01:05:10;;;;;;;5.07;0.90;;;5.60;99.90;;;;;;5110428;28;20043;-77
2024/01/31 01:07:38;;;;;;;4.35;0.65;;;5.60;99.90;;;;;;5109861;28;20180;-75
2024/01/31 01:10:14;;;;;;;5.78;0.90;;;5.60;99.90;;;;;;5111857;28;20047;-79
2024/01/31 01:12:42;;;;;;;2.95;0.68;;;5.50;99.90;;;;;;5110582;28;20073;-76
2024/01/31 01:15:08;;;;;;;5.70;0.90;;;5.50;99.90;;;;;;5110959;27;20105;-77
2024/01/31 01:17:35;;;;;;;5.93;0.85;;;5.50;99.90;;;;;;5110288;28;20079;-79
2024/01/31 01:20:00;;;;;;;3.72;0.90;;;5.60;99.90;;;;;;5111529;28;20047;-78
2024/01/31 01:22:26;;;;;;;5.05;1.80;;;5.60;99.90;;;;;;5143825;27;20059;-78
2024/01/31 01:24:52;;;;;;;3.88;0.95;;;5.60;99.90;;;;;;5111275;28;20399;-78
2024/01/31 01:27:18;;;;;;;6.22;0.90;;;5.70;99.90;;;;;;5144879;27;20151;-77
2024/01/31 01:29:44;;;;;;;4.38;0.70;;;5.70;99.90;;;;;;5109207;28;20122;-78
2024/01/31 01:32:09;;;;;;;6.15;0.93;;;5.70;99.90;;;;;;5143471;27;20462;-78
2024/01/31 01:34:35;;;;;;;3.55;0.65;;;5.70;99.90;;;;;;5111215;28;20100;-78
2024/01/31 01:37:01;;;;;;;3.90;0.70;;;5.60;99.90;;;;;;5109645;28;20047;-78
2024/01/31 01:39:26;;;;;;;2.42;0.47;;;5.60;99.90;;;;;;5126859;27;20055;-78
2024/01/31 01:41:52;;;;;;;2.97;0.50;;;5.60;99.90;;;;;;5110048;28;20123;-78
2024/01/31 01:44:18;;;;;;;4.38;0.52;;;5.50;99.90;;;;;;5109459;28;20051;-78
2024/01/31 01:46:44;;;;;;;2.15;0.57;;;5.50;99.90;;;;;;5109782;28;20078;-77
2024/01/31 01:49:12;;;;;;;;;;;5.40;99.90;;;;;;5109602;27;20679;-77
2024/01/31 01:51:38;;;;;;;;;;;5.40;99.90;;;;;;5109926;28;19971;-77
2024/01/31 01:54:04;;;;;;;4.38;0.70;;;5.30;99.90;;;;;;5109494;28;19916;-77
2024/01/31 01:56:30;;;;;;;2.72;0.68;;;5.30;99.90;;;;;;5111030;28;20043;-77
2024/01/31 01:58:57;;;;;;;4.47;0.63;;;5.30;99.90;;;;;;5143836;27;20108;-77
2024/01/31 02:01:25;;;;;;;1.60;0.55;;;5.30;99.90;;;;;;5109337;28;20066;-78
2024/01/31 02:03:54;;;;;;;4.15;0.60;;;5.20;99.90;;;;;;5110644;28;20062;-77
2024/01/31 02:06:21;;;;;;;5.03;0.80;;;5.10;99.90;;;;;;5142464;27;20389;-78
2024/01/31 02:08:46;;;;;;;4.35;0.70;;;5.10;99.90;;;;;;5126304;27;20058;-77
2024/01/31 02:11:13;;;;;;;3.55;0.60;;;5.00;99.90;;;;;;5143836;27;20043;-77
2024/01/31 02:13:38;;;;;;;2.08;0.60;;;5.00;99.90;;;;;;5109367;28;20054;-77
2024/01/31 02:16:04;;;;;;;2.97;0.60;;;4.90;99.90;;;;;;5110516;28;20480;-77
2024/01/31 02:18:29;;;;;;;2.47;0.90;;;4.90;99.90;;;;;;5143342;27;20124;-77
2024/01/31 02:20:55;;;;;;;2.78;0.50;;;4.80;99.90;;;;;;5142772;27;20050;-77
2024/01/31 02:23:22;;;;;;;3.03;0.43;;;4.80;99.90;;;;;;5107959;28;20059;-76
2024/01/31 02:25:48;;;;;;;3.67;0.85;;;4.70;99.90;;;;;;5108742;28;20315;-76
2024/01/31 02:28:14;;;;;;;5.57;0.75;;;4.70;99.90;;;;;;5109107;28;20174;-77
2024/01/31 02:30:40;;;;;;;2.78;0.55;;;4.70;99.90;;;;;;5110047;28;20042;-76
2024/01/31 02:33:05;;;;;;;2.47;0.60;;;4.60;99.90;;;;;;5110255;28;20124;-77
2024/01/31 02:35:34;;;;;;;6.80;0.70;;;4.60;99.90;;;;;;5109505;28;20039;-76
2024/01/31 02:38:00;;;;;;;4.25;0.70;;;4.60;99.90;;;;;;5107912;28;20059;-76
2024/01/31 02:40:27;;;;;;;3.10;0.57;;;4.60;99.90;;;;;;5117547;27;20043;-76
2024/01/31 02:42:53;;;;;;;4.57;0.60;;;4.60;99.90;;;;;;5130647;27;20066;-76
2024/01/31 02:45:19;;;;;;;4.22;0.52;;;4.50;99.90;;;;;;5128832;27;20061;-77
2024/01/31 02:47:44;;;;;;;3.20;0.73;;;4.50;99.90;;;;;;5130280;27;20043;-76
2024/01/31 02:50:10;;;;;;;3.17;0.60;;;4.50;99.90;;;;;;5128484;27;20070;-77
2024/01/31 02:52:36;;;;;;;4.10;0.70;;;4.50;99.90;;;;;;5128831;27;20051;-77
2024/01/31 02:55:02;;;;;;;4.03;0.80;;;4.40;99.90;;;;;;5128615;27;20053;-77
2024/01/31 02:57:28;;;;;;;6.90;0.90;;;4.40;99.90;;;;;;5128761;27;20047;-77
2024/01/31 02:59:54;;;;;;;3.40;0.50;;;4.40;99.90;;;;;;5109200;27;20147;-77
2024/01/31 03:02:20;;;;;;;3.57;0.57;;;4.30;99.90;;;;;;5126380;27;20121;-78
2024/01/31 03:04:45;;;;;;;6.95;1.38;;;4.30;99.90;;;;;;5127482;27;20849;-77
2024/01/31 03:07:11;;;;;;;4.43;0.70;;;4.30;99.90;;;;;;5127812;27;20039;-76
2024/01/31 03:09:37;;;;;;;2.30;0.63;;;4.30;99.90;;;;;;5128688;27;20395;-77
2024/01/31 03:12:04;;;;;;;4.28;0.70;;;4.30;99.90;;;;;;5128579;27;20054;-77
2024/01/31 03:14:33;;;;;;;4.38;0.60;;;4.30;99.90;;;;;;5117248;27;20048;-77
2024/01/31 03:16:59;;;;;;;3.28;0.70;;;4.30;99.90;;;;;;5107876;28;20049;-77
2024/01/31 03:19:27;;;;;;;4.10;0.90;;;4.30;99.90;;;;;;5141582;27;20043;-77
2024/01/31 03:21:53;;;;;;;5.47;0.60;;;4.30;99.90;;;;;;5109057;28;20094;-76
2024/01/31 03:24:18;;;;;;;4.90;0.95;;;4.30;99.90;;;;;;5107561;28;20060;-77
2024/01/31 03:26:44;;;;;;;5.78;0.70;;;4.40;99.90;;;;;;5108153;28;20039;-77
2024/01/31 03:29:10;;;;;;;5.40;0.88;;;4.40;99.90;;;;;;5107985;28;20532;-75
2024/01/31 03:31:35;;;;;;;4.80;0.95;;;4.30;99.90;;;;;;5107042;28;20040;-76
2024/01/31 03:34:01;;;;;;;5.43;0.80;;;4.30;99.90;;;;;;5107197;28;20040;-76
2024/01/31 03:36:27;;;;;;;5.53;0.70;;;4.30;99.90;;;;;;5107927;28;20297;-78
2024/01/31 03:38:58;;;;;;;7.30;0.90;;;4.40;99.90;;;;;;5108971;28;20051;-78
2024/01/31 03:41:27;;;;;;;7.32;1.02;;;4.40;99.90;;;;;;5107715;28;20065;-77
2024/01/31 03:43:54;;;;;;;3.47;0.60;;;4.40;99.90;;;;;;5107559;28;20544;-77
2024/01/31 03:46:19;;;;;;;4.55;0.70;;;4.40;99.90;;;;;;5107665;28;20054;-78
2024/01/31 03:48:45;;;;;;;3.22;1.05;;;4.50;99.90;;;;;;5107776;27;20036;-77
2024/01/31 03:51:21;;;;;;;5.88;0.80;;;4.50;99.90;;;;;;5141942;27;20479;-77
2024/01/31 03:53:47;;;;;;;4.55;0.70;;;4.50;99.90;;;;;;5111736;28;20083;-78
2024/01/31 03:56:13;;;;;;;4.38;0.80;;;4.50;99.90;;;;;;5111705;28;20050;-78
2024/01/31 03:58:39;;;;;;;3.63;0.75;;;4.50;99.90;;;;;;5146300;27;20507;-78
2024/01/31 04:01:06;;;;;;;4.30;0.63;;;4.40;99.90;;;;;;5111660;28;20043;-78
2024/01/31 04:03:31;;;;;;;3.47;0.85;;;4.30;99.90;;;;;;5112579;28;20484;-78
2024/01/31 04:05:57;;;;;;;1.65;0.50;;;4.30;99.90;;;;;;5112194;27;20039;-78
2024/01/31 04:08:23;;;;;;;3.10;0.60;;;4.20;99.90;;;;;;5111808;28;20131;-78
2024/01/31 04:10:48;;;;;;;5.18;0.70;;;4.10;99.90;;;;;;5111482;28;20048;-78
2024/01/31 04:13:14;;;;;;;4.20;0.70;;;4.00;99.90;;;;;;5145774;27;20048;-78
2024/01/31 04:15:40;;;;;;;2.93;0.80;;;3.90;99.90;;;;;;5145700;27;20039;-78
2024/01/31 04:18:07;;;;;;;1.95;0.60;;;3.80;99.90;;;;;;5128197;27;20320;-77
2024/01/31 04:20:34;;;;;;;2.65;0.57;;;3.80;99.90;;;;;;5166326;27;20095;-77
2024/01/31 04:23:00;;;;;;;6.65;0.93;;;3.70;99.90;;;;;;5133040;27;20051;-76
2024/01/31 04:25:26;;;;;;;5.30;0.68;;;3.60;99.90;;;;;;5133208;27;20446;-77
2024/01/31 04:27:51;;;;;;;3.38;0.57;;;3.60;99.90;;;;;;5133185;27;20047;-77
2024/01/31 04:30:18;;;;;;;3.42;0.60;;;3.50;99.90;;;;;;5131189;27;20035;-77
2024/01/31 04:32:44;;;;;;;3.13;0.80;;;3.40;99.90;;;;;;5131433;27;20609;-76
2024/01/31 04:35:10;;;;;;;4.65;1.02;;;3.40;99.90;;;;;;5111809;27;20039;-77
2024/01/31 04:37:36;;;;;;;3.40;0.70;;;3.40;99.90;;;;;;5112479;28;20065;-77
2024/01/31 04:40:01;;;;;;;2.85;0.80;;;3.40;99.90;;;;;;5111214;28;20047;-77
2024/01/31 04:42:27;;;;;;;5.82;0.50;;;3.40;99.90;;;;;;5145421;27;20198;-77
2024/01/31 04:44:52;;;;;;;5.07;0.70;;;3.40;99.90;;;;;;5110506;28;20139;-77
2024/01/31 04:47:18;;;;;;;3.73;0.60;;;3.40;99.90;;;;;;5112317;28;20286;-78
2024/01/31 04:49:44;;;;;;;2.40;0.50;;;3.40;99.90;;;;;;5111415;27;20039;-78
2024/01/31 04:52:11;;;;;;;5.47;0.70;;;3.40;99.90;;;;;;5145050;27;20661;-77
2024/01/31 04:54:39;;;;;;;2.13;0.52;;;3.40;99.90;;;;;;5110669;28;20372;-77
2024/01/31 04:57:05;;;;;;;5.32;1.05;;;3.40;99.90;;;;;;5110788;28;20059;-76
2024/01/31 04:59:32;;;;;;;4.28;0.60;;;3.40;99.90;;;;;;5144748;27;20096;-76
2024/01/31 05:01:57;;;;;;;3.42;0.93;;;3.40;99.90;;;;;;5159576;27;20043;-78
2024/01/31 05:04:24;;;;;;;2.83;0.70;;;3.40;99.90;;;;;;5131169;27;20675;-79
2024/01/31 05:06:49;;;;;;;4.07;0.65;;;3.40;99.90;;;;;;5112490;27;20312;-78
2024/01/31 05:09:15;;;;;;;5.80;0.80;;;3.40;99.90;;;;;;5111878;28;20035;-79
2024/01/31 05:11:41;;;;;;;3.03;0.77;;;3.40;99.90;;;;;;5111714;27;20269;-77
2024/01/31 05:14:07;;;;;;;6.50;0.80;;;3.40;99.90;;;;;;5111387;28;20454;-77
2024/01/31 05:16:32;;;;;;;4.30;0.85;;;3.40;99.90;;;;;;5111528;28;20288;-77
2024/01/31 05:18:58;;;;;;;3.60;0.80;;;3.40;99.90;;;;;;5110201;28;20047;-77
2024/01/31 05:21:23;;;;;;;1.20;0.50;;;3.50;99.90;;;;;;5126523;27;20041;-77
2024/01/31 05:23:49;;;;;;;3.43;0.50;;;3.40;99.90;;;;;;5109816;28;20416;-76
2024/01/31 05:26:15;;;;;;;3.88;0.60;;;3.50;99.90;;;;;;5110253;28;20047;-76
2024/01/31 05:28:42;;;;;;;4.93;0.70;;;3.50;99.90;;;;;;5109497;28;20506;-76
2024/01/31 05:31:07;;;;;;;2.35;0.70;;;3.50;99.90;;;;;;5144468;27;20293;-76
2024/01/31 05:33:33;;;;;;;2.58;0.50;;;3.50;99.90;;;;;;5092861;28;20511;-76
2024/01/31 05:36:00;;;;;;;3.55;0.60;;;3.50;99.90;;;;;;5109692;28;20044;-76
2024/01/31 05:38:26;;;;;;;3.10;0.60;;;3.50;99.90;;;;;;5109373;27;20062;-76
2024/01/31 05:40:52;;;;;;;3.87;0.67;;;3.60;99.90;;;;;;5109579;28;20040;-76
2024/01/31 05:43:18;;;;;;;4.60;0.80;;;3.60;99.90;;;;;;5110721;28;20269;-77
2024/01/31 05:45:43;;;;;;;2.17;1.05;;;3.60;99.90;;;;;;5109542;28;20897;-76
2024/01/31 05:48:09;;;;;;;4.10;1.05;;;3.60;99.90;;;;;;5109489;28;20584;-76
2024/01/31 05:50:35;;;;;;;4.97;0.77;;;3.60;99.90;;;;;;5126602;27;20129;-76
2024/01/31 05:53:01;;;;;;;3.58;0.90;;;3.70;99.90;;;;;;5109490;28;20040;-76
2024/01/31 05:55:26;;;;;;;4.28;0.88;;;3.70;99.90;;;;;;5108760;27;20155;-76
2024/01/31 05:57:52;;;;;;;1.90;0.63;;;3.80;99.90;;;;;;5108964;28;20047;-77
2024/01/31 06:00:18;;;;;;;2.33;0.70;;;3.80;99.90;;;;;;5110720;28;20047;-76
2024/01/31 06:02:43;;;;;;;3.67;0.85;;;3.80;99.90;;;;;;5109332;28;20447;-76
2024/01/31 06:05:09;;;;;;;4.07;1.00;;;3.90;99.90;;;;;;5143575;27;20453;-77
2024/01/31 06:07:34;;;;;;;3.65;0.90;;;3.90;99.90;;;;;;5109144;28;20043;-76
2024/01/31 06:10:00;;;;;;;4.47;1.10;;;4.00;99.90;;;;;;5110594;28;20044;-76
2024/01/31 06:12:26;;;;;;;1.90;0.70;;;4.00;99.90;;;;;;5116138;27;20047;-77
2024/01/31 06:14:52;;;;;;;5.03;1.00;;;4.10;99.90;;;;;;5129667;27;20129;-77
2024/01/31 06:17:17;;;;;;;5.28;0.80;;;4.00;99.90;;;;;;5129941;27;20043;-77
2024/01/31 06:19:47;;;;;;;3.03;0.80;;;4.10;99.90;;;;;;5129659;27;20399;-77
2024/01/31 06:22:12;;;;;;;3.33;0.70;;;4.10;99.90;;;;;;5129297;27;20059;-77
2024/01/31 06:24:38;;;;;;;2.50;0.70;;;4.10;99.90;;;;;;5129260;27;20070;-77
2024/01/31 06:27:03;;;;;;;3.35;0.82;;;4.10;99.90;;;;;;5128830;27;20043;-77
2024/01/31 06:29:29;;;;;;;2.55;0.80;;;4.10;99.90;;;;;;5127891;27;20069;-77
2024/01/31 06:31:59;;;;;;;4.35;1.08;;;4.10;99.90;;;;;;5129292;27;20035;-77
2024/01/31 06:34:25;;;;;;;2.38;0.70;;;4.20;99.90;;;;;;5129488;27;20177;-77
2024/01/31 06:36:51;;;;;;;4.83;1.00;;;4.20;99.90;;;;;;5129164;27;20118;-77
2024/01/31 06:39:17;;;;;;;5.28;1.00;;;4.30;99.90;;;;;;5129200;27;20292;-77
2024/01/31 06:41:42;;;;;;;7.97;1.02;;;4.30;99.90;;;;;;5128538;27;20043;-78
2024/01/31 06:44:08;;;;;;;5.50;0.80;;;4.40;99.90;;;;;;5129004;27;20070;-78
2024/01/31 06:46:33;;;;;;;5.13;1.10;;;4.40;99.90;;;;;;5121842;27;20039;-77
2024/01/31 06:48:59;;;;;;;6.53;1.67;;;4.50;99.90;;;;;;5143005;27;20414;-79
2024/01/31 06:51:25;;;;;;;5.40;0.80;;;4.50;99.90;;;;;;5142721;27;20757;-77
2024/01/31 06:53:50;;;;;;;5.20;1.00;;;4.50;99.90;;;;;;5142688;27;20092;-77
2024/01/31 06:56:19;;;;;;;5.38;0.93;;;4.50;99.90;;;;;;5142122;27;20133;-76
2024/01/31 06:58:46;;;;;;;5.95;1.35;;;4.50;99.90;;;;;;5142680;27;20068;-77
2024/01/31 07:01:15;;;;;;;3.65;0.90;;;4.50;99.90;;;;;;5108162;28;20043;-77
2024/01/31 07:03:42;;;;;;;5.68;1.00;;;4.50;99.90;;;;;;5107336;28;20443;-77
2024/01/31 07:06:07;;;;;;;3.15;0.80;;;4.50;99.90;;;;;;5108204;28;20051;-77
2024/01/31 07:08:33;;;;;;;5.00;0.93;;;4.50;99.90;;;;;;5125010;27;20119;-77
2024/01/31 07:10:58;;;;;;;3.95;0.80;;;4.50;99.90;;;;;;5141786;27;20098;-76
2024/01/31 07:13:24;;;;;;;6.20;1.13;;;4.50;99.90;;;;;;5109308;28;20043;-75
2024/01/31 07:15:49;;;;;;;5.43;0.90;;;4.50;99.90;;;;;;5142175;27;20052;-76
2024/01/31 07:18:15;;;;;;;6.20;1.70;;;4.50;99.90;;;;;;5141688;27;20329;-78
2024/01/31 07:20:41;;;;;;;5.40;1.10;;;4.60;99.90;;;;;;5108159;28;20288;-76
2024/01/31 07:23:06;;;;;;;6.45;1.45;;;4.60;99.90;;;;;;5109000;28;20100;-78
2024/01/31 07:25:32;;;;;;;4.15;0.90;;;4.60;99.90;;;;;;5108636;28;20047;-78
2024/01/31 07:27:57;;;;;;;5.17;1.30;;;4.60;99.90;;;;;;5108537;28;20032;-76
2024/01/31 07:30:23;;;;;;;6.25;1.77;;;4.60;99.90;;;;;;5142065;27;20047;-77
2024/01/31 07:32:49;;;;;;;8.97;1.50;;;4.60;99.90;;;;;;5141805;27;20482;-76
2024/01/31 07:35:14;;;;;;;4.43;1.50;;;4.60;99.90;;;;;;5107187;28;20353;-76
2024/01/31 07:37:40;;;;;;;5.00;1.10;;;4.60;99.90;;;;;;5107698;28;20844;-76
2024/01/31 07:40:09;;;;;;;6.72;1.33;;;4.60;99.90;;;;;;5107028;28;20036;-76
2024/01/31 07:42:35;;;;;;;5.13;1.35;;;4.60;99.90;;;;;;5107729;28;20054;-77
2024/01/31 07:45:02;;;;;;;6.60;1.33;;;4.60;99.90;;;;;;5107608;28;20484;-77
2024/01/31 07:47:28;;;;;;;4.00;0.93;;;4.60;99.90;;;;;;5108902;28;20403;-77
2024/01/31 07:49:53;;;;;;;5.10;1.27;;;4.60;99.90;;;;;;5106982;27;20044;-77
2024/01/31 07:52:19;;;;;;;5.68;1.20;;;4.60;99.90;;;;;;5107768;28;20088;-76
2024/01/31 07:54:45;;;;;;;2.90;1.08;;;4.70;99.90;;;;;;5106932;28;20044;-77
2024/01/31 07:57:10;;;;;;;6.70;1.52;;;4.70;99.90;;;;;;5108724;28;20047;-77
2024/01/31 07:59:36;;;;;;;6.10;1.53;;;4.70;99.90;;;;;;5107588;28;20039;-77
2024/01/31 08:02:02;;;;;;;6.68;1.50;;;4.70;99.90;;;;;;5107449;28;20795;-77
2024/01/31 08:04:27;;;;;;;5.32;1.42;;;4.80;99.90;;;;;;5107387;28;20039;-77
2024/01/31 08:06:53;;;;;;;4.75;1.60;;;4.80;99.90;;;;;;5106657;28;20050;-77
2024/01/31 08:09:18;;;;;;;4.30;1.48;;;4.80;99.90;;;;;;5124169;27;20036;-77
2024/01/31 08:11:44;;;;;;;6.63;1.40;;;4.80;99.90;;;;;;5107254;28;20054;-77
2024/01/31 08:14:10;;;;;;;5.35;1.55;;;4.90;99.90;;;;;;5109112;28;20108;-77
2024/01/31 08:16:37;;;;;;;5.35;1.60;;;4.90;99.90;;;;;;5107208;28;20047;-77
2024/01/31 08:19:03;;;;;;;6.07;1.38;;;4.90;99.90;;;;;;5107430;28;20051;-77
2024/01/31 08:21:32;;;;;;;7.47;1.63;;;4.90;99.90;;;;;;5107479;28;20051;-77
2024/01/31 08:23:59;;;;;;;5.82;1.30;;;5.00;99.90;;;;;;5107219;27;20093;-77
2024/01/31 08:26:24;;;;;;;7.65;1.48;;;5.00;99.90;;;;;;5107052;28;20058;-77
2024/01/31 08:28:50;;;;;;;3.90;1.48;;;5.00;99.90;;;;;;5108574;28;20039;-77
2024/01/31 08:31:16;;;;;;;4.20;1.73;;;5.00;99.90;;;;;;5107278;28;20036;-77
2024/01/31 08:33:41;;;;;;;4.30;1.40;;;5.10;99.90;;;;;;5124245;28;20048;-77
2024/01/31 08:36:08;;;;;;;5.10;1.40;;;5.10;99.90;;;;;;5108633;28;20270;-77
2024/01/31 08:38:35;;;;;;;7.53;2.20;;;5.10;99.90;;;;;;5109792;28;20266;-76
2024/01/31 08:41:02;;;;;;;7.55;2.03;;;5.10;99.90;;;;;;5110284;27;20044;-76
2024/01/31 08:43:27;;;;;;;5.60;2.30;;;5.20;99.90;;;;;;5111317;28;20395;-77
2024/01/31 08:45:53;;;;;;;4.38;1.70;;;5.20;99.90;;;;;;5110736;28;20036;-77
2024/01/31 08:48:19;;;;;;;6.97;2.28;;;5.20;99.90;;;;;;5111029;28;20075;-77
2024/01/31 08:50:45;;;;;;;6.15;2.47;;;5.20;99.90;;;;;;5110600;28;20079;-76
2024/01/31 08:53:11;;;;;;;4.90;2.10;;;5.30;99.90;;;;;;5111510;28;20594;-77
2024/01/31 08:55:36;;;;;;;4.57;2.22;;;5.30;99.90;;;;;;5112127;28;20054;-77
2024/01/31 08:58:02;;;;;;;7.18;2.60;;;5.30;99.90;;;;;;5109773;28;20399;-77
2024/01/31 09:00:29;;;;;;;5.32;2.58;;;5.40;99.90;;;;;;5110688;28;20051;-77
2024/01/31 09:02:55;;;;;;;4.07;2.63;;;5.40;99.90;;;;;;5110592;28;20548;-77
2024/01/31 09:05:21;;;;;;;6.80;2.58;;;5.50;99.90;;;;;;5110334;28;20051;-76
2024/01/31 09:07:46;;;;;;;3.83;2.43;;;5.50;99.90;;;;;;5110112;28;20047;-77
2024/01/31 09:10:12;;;;;;;5.43;2.40;;;5.50;99.90;;;;;;5110331;28;20077;-77
2024/01/31 09:12:38;;;;;;;6.60;2.70;;;5.60;99.90;;;;;;5111178;27;20251;-77
2024/01/31 09:15:03;;;;;;;5.07;2.53;;;5.60;99.90;;;;;;5111884;28;20043;-77
2024/01/31 09:17:29;;;;;;;4.65;2.60;;;5.60;99.90;;;;;;5110243;28;20046;-77
2024/01/31 09:19:55;;;;;;;5.13;2.63;;;5.60;99.90;;;;;;5110205;28;20068;-77
2024/01/31 09:22:20;;;;;;;5.63;3.30;;;5.60;99.90;;;;;;5109795;28;20415;-77
2024/01/31 09:24:46;;;;;;;4.15;2.65;;;5.60;99.90;;;;;;5110215;28;20051;-77
2024/01/31 09:27:11;;;;;;;6.28;2.90;;;5.70;99.90;;;;;;5111413;28;20377;-77
2024/01/31 09:29:37;;;;;;;5.82;3.17;;;5.70;99.90;;;;;;5109484;28;20044;-77
2024/01/31 09:32:03;;;;;;;5.47;3.53;;;5.80;99.90;;;;;;5110064;28;20044;-77
2024/01/31 09:34:29;;;;;;;7.57;3.47;;;5.70;99.90;;;;;;5109816;28;20054;-77
2024/01/31 09:36:54;;;;;;;6.18;3.00;;;5.80;99.90;;;;;;5109366;28;20054;-77
2024/01/31 09:39:20;;;;;;;6.78;3.50;;;5.80;99.90;;;;;;5111161;28;20050;-77
2024/01/31 09:41:48;;;;;;;5.05;3.65;;;5.80;99.90;;;;;;5126802;27;20104;-77
2024/01/31 09:44:14;;;;;;;7.45;4.53;;;5.90;99.90;;;;;;5109647;28;20047;-77
2024/01/31 09:46:41;;;;;;;7.10;4.60;;;5.90;99.90;;;;;;5110357;27;20043;-77
2024/01/31 09:49:06;;;;;;;6.18;4.65;;;5.90;99.90;;;;;;5110862;28;20036;-77
2024/01/31 09:51:33;;;;;;;6.22;5.15;;;5.90;99.90;;;;;;5109991;28;20047;-77
2024/01/31 09:53:59;;;;;;;;;;;5.90;99.90;;;;;;5110112;28;20433;-77
2024/01/31 09:56:31;;;;;;;6.70;5.35;;;6.00;99.90;;;;;;5109405;28;19919;-77
2024/01/31 09:58:57;;;;;;;8.27;5.22;;;6.00;99.90;;;;;;5109574;28;20063;-77
2024/01/31 10:01:25;;;;;;;8.05;4.68;;;6.10;99.90;;;;;;5108766;27;20049;-77
2024/01/31 10:03:51;;;;;;;8.20;5.57;;;6.10;99.90;;;;;;5110348;28;20114;-77
2024/01/31 10:06:17;;;;;;;6.95;5.70;;;6.10;99.90;;;;;;5110503;28;20127;-77
2024/01/31 10:08:43;;;;;;;7.38;4.95;;;6.10;99.90;;;;;;5110661;28;20122;-77
2024/01/31 10:11:08;;;;;;;8.38;5.47;;;6.10;99.90;;;;;;5143525;27;20044;-77
2024/01/31 10:13:34;;;;;;;6.70;5.70;;;6.10;99.90;;;;;;5109099;28;20775;-77
2024/01/31 10:15:59;;;;;;;9.23;5.67;;;6.10;99.90;;;;;;5143773;27;20288;-77
2024/01/31 10:18:28;;;;;;;7.63;5.97;;;6.20;99.90;;;;;;5108223;27;20432;-77
2024/01/31 10:20:54;;;;;;;6.75;5.82;;;6.20;99.90;;;;;;5126081;27;20346;-77
2024/01/31 10:23:20;;;;;;;7.85;6.30;;;6.30;99.90;;;;;;5143188;27;20055;-77
2024/01/31 10:25:46;;;;;;;8.48;5.80;;;6.20;99.90;;;;;;5110083;28;20515;-77
2024/01/31 10:28:18;;;;;;;7.50;5.72;;;6.30;99.90;;;;;;5143250;27;20048;-77
2024/01/31 10:30:44;;;;;;;9.02;6.50;;;6.30;99.90;;;;;;5143325;27;20074;-77
2024/01/31 10:33:10;;;;;;;;;;;6.30;99.90;;;;;;5108176;27;20039;-77
2024/01/31 10:35:37;;;;;;;7.35;5.68;;;6.30;99.90;;;;;;5091993;28;19920;-77
2024/01/31 10:38:03;;;;;;;;;;;6.30;99.90;;;;;;5109019;28;20118;-77
2024/01/31 10:40:29;;;;;;;8.63;6.38;;;6.40;99.90;;;;;;5108605;28;19998;-76
2024/01/31 10:42:57;;;;;;;8.10;5.93;;;6.40;99.90;;;;;;5108458;28;20044;-76
2024/01/31 10:45:23;;;;;;;8.93;5.95;;;6.50;99.90;;;;;;5109917;28;20050;-76
2024/01/31 10:47:48;;;;;;;7.85;6.15;;;6.50;99.90;;;;;;5109307;28;20114;-77
2024/01/31 10:50:14;;;;;;;7.82;6.07;;;6.60;99.90;;;;;;5107941;27;20503;-77
2024/01/31 10:52:41;;;;;;;7.47;5.60;;;6.60;99.90;;;;;;5109271;27;20036;-76
2024/01/31 10:55:09;;;;;;;6.97;5.47;;;6.60;99.90;;;;;;5109917;28;20050;-77
2024/01/31 10:57:35;;;;;;;7.43;5.18;;;6.60;99.90;;;;;;5109689;28;20043;-76
2024/01/31 11:00:02;;;;;;;7.63;6.32;;;6.60;99.90;;;;;;5108365;28;20046;-76
2024/01/31 11:02:30;;;;;;;7.43;5.57;;;6.60;99.90;;;;;;5108111;28;20487;-76
2024/01/31 11:05:04;;;;;;;6.95;5.68;;;6.70;99.90;;;;;;5108121;28;20048;-75
2024/01/31 11:07:30;;;;;;;9.02;5.93;;;6.60;99.90;;;;;;5108104;28;20114;-76
2024/01/31 11:09:56;;;;;;;8.35;5.78;;;6.70;99.90;;;;;;5108756;27;20118;-77
2024/01/31 11:12:22;;;;;;;;;;;6.70;99.90;;;;;;5108532;28;20476;-77
2024/01/31 11:14:50;;;;;;;7.63;5.93;;;6.70;99.90;;;;;;5108354;28;20014;-76
2024/01/31 11:17:19;;;;;;;9.18;6.10;;;6.70;99.90;;;;;;5107447;28;20055;-76
2024/01/31 11:19:51;;;;;;;8.02;5.32;;;6.60;99.90;;;;;;5107936;28;20093;-76
2024/01/31 11:22:21;;;;;;;7.63;5.68;;;6.70;99.90;;;;;;5107702;28;20059;-76
2024/01/31 11:24:48;;;;;;;9.45;5.97;;;6.70;99.90;;;;;;5109244;28;20047;-77
2024/01/31 11:27:15;;;;;;;7.15;5.60;;;6.70;99.90;;;;;;5108543;27;20039;-76
2024/01/31 11:29:44;;;;;;;6.88;4.85;;;6.70;99.90;;;;;;5109321;28;20144;-77
2024/01/31 11:32:10;;;;;;;7.63;5.65;;;6.80;99.90;;;;;;5108861;28;20036;-77
2024/01/31 11:34:36;;;;;;;6.68;4.93;;;6.80;99.90;;;;;;5142629;27;20043;-76
2024/01/31 11:37:02;;;;;;;;;;;6.80;99.90;;;;;;5109787;28;20052;-76
2024/01/31 11:39:27;;;;;;;5.93;4.47;;;6.80;99.90;;;;;;5107757;28;19939;-76
2024/01/31 11:41:54;;;;;;;7.38;4.60;;;6.80;99.90;;;;;;5141681;27;20036;-77
2024/01/31 11:44:20;;;;;;;6.32;4.55;;;6.80;99.90;;;;;;5107605;28;20051;-77
2024/01/31 11:46:46;;;;;;;6.18;4.40;;;6.90;99.90;;;;;;5141036;27;20100;-77
2024/01/31 11:49:11;;;;;;;6.28;3.95;;;6.90;99.90;;;;;;5107824;28;20396;-77
2024/01/31 11:51:38;;;;;;;5.22;3.78;;;6.90;99.90;;;;;;5107781;28;20047;-77
2024/01/31 11:54:04;;;;;;;7.13;4.40;;;6.90;99.90;;;;;;5107410;28;20052;-76
2024/01/31 11:56:30;;;;;;;4.85;3.80;;;6.80;99.90;;;;;;5108805;28;20120;-77
2024/01/31 11:58:57;;;;;;;;;;;6.90;99.90;;;;;;5107743;28;20048;-77
2024/01/31 12:01:23;;;;;;;6.40;4.25;;;6.90;99.90;;;;;;5107137;28;19920;-77
2024/01/31 12:03:49;;;;;;;6.53;3.92;;;6.90;99.90;;;;;;5107915;27;20590;-77
2024/01/31 12:06:19;;;;;;;5.50;4.53;;;6.90;99.90;;;;;;5141940;27;20052;-77
2024/01/31 12:08:47;;;;;;;5.40;4.10;;;6.90;99.90;;;;;;5108810;28;20032;-76
2024/01/31 12:11:16;;;;;;;6.80;4.72;;;6.90;99.90;;;;;;5108771;28;20069;-77
2024/01/31 12:13:45;;;;;;;7.03;5.00;;;6.90;99.90;;;;;;5111263;28;20028;-77
2024/01/31 12:16:11;;;;;;;6.15;4.50;;;6.90;99.90;;;;;;5111092;28;20048;-77
2024/01/31 12:18:37;;;;;;;6.93;4.82;;;6.90;99.90;;;;;;5111555;28;20153;-76
2024/01/31 12:21:04;;;;;;;5.57;3.90;;;6.80;99.90;;;;;;5110668;28;20115;-77
2024/01/31 12:23:30;;;;;;;6.85;4.35;;;6.90;99.90;;;;;;5094152;28;20059;-77
2024/01/31 12:25:57;;;;;;;5.25;4.25;;;6.80;99.90;;;;;;5111099;28;20058;-77
2024/01/31 12:28:22;;;;;;;5.03;4.40;;;6.80;99.90;;;;;;5111129;28;20693;-77
2024/01/31 12:30:49;;;;;;;7.65;4.57;;;6.80;99.90;;;;;;5111065;28;20047;-77
2024/01/31 12:33:14;;;;;;;5.45;4.10;;;6.80;99.90;;;;;;5112450;28;20039;-76
2024/01/31 12:35:40;;;;;;;6.47;4.25;;;6.80;99.90;;;;;;5110603;27;20042;-76
2024/01/31 12:38:05;;;;;;;5.80;4.35;;;6.80;99.90;;;;;;5111142;28;20035;-77
2024/01/31 12:40:31;;;;;;;4.93;4.40;;;6.90;99.90;;;;;;5145311;27;20609;-77
2024/01/31 12:42:58;;;;;;;7.13;4.85;;;6.90;99.90;;;;;;5110858;28;20065;-77
2024/01/31 12:45:23;;;;;;;6.60;4.72;;;6.90;99.90;;;;;;5144887;27;20054;-77
2024/01/31 12:47:50;;;;;;;6.15;5.00;;;6.90;99.90;;;;;;5145128;27;20048;-77
2024/01/31 12:50:15;;;;;;;5.75;4.63;;;6.90;99.90;;;;;;5111121;28;20043;-76
2024/01/31 12:52:42;;;;;;;6.38;4.70;;;7.00;99.90;;;;;;5144661;27;20036;-77
2024/01/31 12:55:07;;;;;;;5.50;4.55;;;6.90;99.90;;;;;;5111989;28;20047;-77